Time;durP1;ratioP1;P1;durP2;ratioP2;P2;SDS_P1;SDS_P2;PMS_P1;PMS_P2;Temp;Humidity;BMP_temperature;BMP_pressure;BME280_temperature;BME280_humidity;BME280_pressure;Samples;Min_cycle;Max_cycle;Signal;HPM_P1;HPM_P2
2022/06/09 00:02:02;;;;;;;2.08;1.52;;;;;;;14.80;76.17;98347.25;2618573;54;20038;-65
2022/06/09 00:04:38;;;;;;;4.32;1.30;;;;;;;14.74;76.35;98361.47;2618689;54;20026;-65
2022/06/09 00:07:11;;;;;;;2.55;1.48;;;;;;;14.74;76.08;98366.78;2618206;54;20030;-66
2022/06/09 00:09:44;;;;;;;4.05;2.00;;;;;;;14.75;76.58;98357.78;2618565;54;20031;-66
2022/06/09 00:12:14;;;;;;;5.40;1.70;;;;;;;14.74;76.47;98366.78;2618351;54;20031;-66
2022/06/09 00:14:44;;;;;;;6.35;1.77;;;;;;;14.80;76.06;98368.53;2618657;54;20030;-66
2022/06/09 00:17:14;;;;;;;4.65;1.85;;;;;;;14.81;76.03;98369.34;2618425;54;20030;-65
2022/06/09 00:19:46;;;;;;;3.92;1.52;;;;;;;14.85;75.67;98365.16;2618529;54;20034;-66
2022/06/09 00:22:16;;;;;;;3.17;1.60;;;;;;;14.89;75.91;98371.66;2618306;54;20030;-66
2022/06/09 00:24:45;;;;;;;7.40;1.77;;;;;;;14.89;75.60;98369.00;2618757;54;20031;-65
2022/06/09 00:27:15;;;;;;;8.13;1.70;;;;;;;14.84;75.67;98380.31;2618238;54;20039;-65
2022/06/09 00:29:45;;;;;;;4.82;1.50;;;;;;;14.83;75.72;98378.72;2617672;47;20057;-66
2022/06/09 00:32:15;;;;;;;2.90;1.27;;;;;;;14.82;75.61;98379.75;2618332;54;20042;-67
2022/06/09 00:34:47;;;;;;;3.30;1.52;;;;;;;14.78;75.54;98383.13;2617773;54;20022;-66
2022/06/09 00:37:17;;;;;;;3.33;1.23;;;;;;;14.74;75.65;98381.97;2619122;54;20035;-66
2022/06/09 00:39:46;;;;;;;3.15;1.70;;;;;;;14.71;76.12;98385.88;2619392;54;20027;-64
2022/06/09 00:42:16;;;;;;;3.83;1.92;;;;;;;14.66;75.71;98390.28;2618602;54;20025;-65
2022/06/09 00:44:46;;;;;;;4.28;1.90;;;;;;;14.59;75.90;98390.38;2618375;54;20023;-66
2022/06/09 00:47:19;;;;;;;4.72;1.75;;;;;;;14.58;76.47;98386.09;2617957;54;20543;-65
2022/06/09 00:50:03;;;;;;;5.68;2.47;;;;;;;14.60;76.22;98392.78;2618020;54;20031;-65
2022/06/09 00:52:40;;;;;;;5.90;1.70;;;;;;;14.61;76.42;98401.56;2618558;54;20030;-65
2022/06/09 00:55:15;;;;;;;3.97;1.85;;;;;;;14.65;76.72;98409.91;2619049;54;20041;-66
2022/06/09 00:57:50;;;;;;;2.40;1.98;;;;;;;14.65;76.67;98407.25;2618807;54;20033;-65
2022/06/09 01:00:31;;;;;;;3.30;1.75;;;;;;;14.66;77.07;98404.38;2619417;54;20061;-66
2022/06/09 01:03:02;;;;;;;4.38;1.98;;;;;;;14.68;77.02;98417.44;2619828;54;20031;-66
2022/06/09 01:05:38;;;;;;;6.13;2.47;;;;;;;14.61;77.51;98436.16;2620881;54;20023;-66
2022/06/09 01:08:10;;;;;;;6.15;1.98;;;;;;;14.52;78.10;98426.88;2621843;54;20046;-66
2022/06/09 01:10:41;;;;;;;6.53;2.13;;;;;;;14.59;78.21;98420.44;2621031;47;20077;-66
2022/06/09 01:13:11;;;;;;;8.70;2.65;;;;;;;14.63;78.37;98425.31;2620348;39;20467;-66
2022/06/09 01:15:51;;;;;;;5.82;2.55;;;;;;;14.65;77.86;98420.56;2620468;54;20062;-66
2022/06/09 01:18:32;;;;;;;4.70;1.95;;;;;;;14.67;78.19;98426.47;2619010;54;20550;-66
2022/06/09 01:21:12;;;;;;;4.63;2.35;;;;;;;14.72;78.28;98422.06;2619290;54;20061;-65
2022/06/09 01:24:11;;;;;;;3.80;2.47;;;;;;;14.77;78.01;98416.06;2619410;54;20041;-66
2022/06/09 01:27:14;;;;;;;4.90;2.22;;;;;;;14.72;78.04;98418.59;2619211;54;20030;-65
2022/06/09 01:29:47;;;;;;;5.68;2.35;;;;;;;14.57;78.17;98413.72;2618384;54;20026;-66
2022/06/09 01:32:28;;;;;;;5.50;2.30;;;;;;;14.50;78.37;98416.47;2618696;54;20031;-65
2022/06/09 01:35:09;;;;;;;6.28;2.65;;;;;;;14.47;78.43;98410.78;2619350;39;20396;-66
2022/06/09 01:37:43;;;;;;;8.00;2.67;;;;;;;14.48;78.56;98407.06;2619564;39;20430;-66
2022/06/09 01:40:15;;;;;;;6.47;2.40;;;;;;;14.47;78.54;98414.25;2618841;54;20045;-64
2022/06/09 01:42:46;;;;;;;4.75;2.40;;;;;;;14.48;78.82;98413.19;2618919;54;20022;-66
2022/06/09 01:45:20;;;;;;;6.10;2.83;;;;;;;14.48;78.48;98415.84;2618881;54;20037;-65
2022/06/09 01:48:02;;;;;;;5.93;2.50;;;;;;;14.41;78.67;98412.50;2618789;54;20031;-65
2022/06/09 01:50:37;;;;;;;5.65;2.92;;;;;;;14.38;78.84;98413.75;2619054;54;20105;-65
2022/06/09 01:53:11;;;;;;;4.75;2.38;;;;;;;14.36;79.19;98412.34;2619196;39;20433;-66
2022/06/09 01:55:47;;;;;;;6.32;2.70;;;;;;;14.34;79.33;98412.59;2619177;39;20438;-66
2022/06/09 01:58:20;;;;;;;4.22;2.42;;;;;;;14.29;79.41;98411.66;2618614;54;20518;-66
2022/06/09 02:00:50;;;;;;;7.88;3.85;;;;;;;14.24;79.34;98411.50;2618640;54;20038;-66
2022/06/09 02:03:27;;;;;;;7.05;2.95;;;;;;;14.29;79.38;98415.13;2619497;54;20033;-65
2022/06/09 02:06:00;;;;;;;5.10;3.38;;;;;;;14.27;79.64;98413.72;2623113;54;20039;-66
2022/06/09 02:08:31;;;;;;;5.97;3.00;;;;;;;14.23;79.82;98418.66;2618130;47;20030;-65
2022/06/09 02:11:03;;;;;;;7.72;3.38;;;;;;;14.17;80.00;98418.78;2618336;39;20422;-65
2022/06/09 02:13:39;;;;;;;6.82;3.55;;;;;;;14.15;80.02;98418.97;2618354;54;20026;-65
2022/06/09 02:16:14;;;;;;;3.85;2.97;;;;;;;14.20;80.04;98415.63;2621289;39;20403;-65
2022/06/09 02:18:48;;;;;;;7.28;3.65;;;;;;;14.13;80.08;98419.22;2624523;54;20038;-65
2022/06/09 02:21:21;;;;;;;4.30;3.08;;;;;;;14.15;80.27;98421.63;2623937;47;20034;-65
2022/06/09 02:23:54;;;;;;;8.57;3.13;;;;;;;14.17;80.18;98432.06;2625251;39;20430;-65
2022/06/09 02:26:25;;;;;;;6.97;3.38;;;;;;;14.14;79.78;98433.31;2619802;54;20038;-65
2022/06/09 02:28:54;;;;;;;8.00;3.22;;;;;;;14.08;80.11;98434.19;2618546;54;20038;-65
2022/06/09 02:31:26;;;;;;;5.97;2.85;;;;;;;14.02;80.02;98429.78;2618562;54;20038;-65
2022/06/09 02:33:58;;;;;;;5.60;2.70;;;;;;;14.08;79.95;98432.38;2618627;54;20042;-65
2022/06/09 02:36:28;;;;;;;8.73;2.78;;;;;;;14.04;80.21;98439.16;2619122;39;20431;-65
2022/06/09 02:38:58;;;;;;;5.07;2.60;;;;;;;14.03;80.22;98431.41;2618530;54;20031;-66
2022/06/09 02:41:27;;;;;;;6.43;2.72;;;;;;;14.00;79.76;98432.69;2618044;54;20139;-65
2022/06/09 02:43:57;;;;;;;6.15;2.70;;;;;;;13.99;79.99;98430.22;2619055;54;20033;-66
2022/06/09 02:46:26;;;;;;;8.52;2.50;;;;;;;13.98;79.94;98437.38;2621989;54;20037;-65
2022/06/09 02:48:59;;;;;;;4.80;2.38;;;;;;;13.93;79.99;98423.97;2622342;39;20497;-66
2022/06/09 02:51:31;;;;;;;5.57;2.40;;;;;;;13.95;79.50;98432.50;2622218;54;20038;-65
2022/06/09 02:54:03;;;;;;;3.78;2.20;;;;;;;13.94;79.28;98428.25;2620651;54;20038;-65
2022/06/09 02:56:33;;;;;;;3.55;2.08;;;;;;;13.95;79.33;98431.69;2618011;47;20574;-65
2022/06/09 02:59:03;;;;;;;5.05;2.00;;;;;;;13.94;79.12;98438.88;2618538;54;20041;-65
2022/06/09 03:01:32;;;;;;;5.78;2.55;;;;;;;13.93;79.09;98436.44;2618402;54;20057;-65
2022/06/09 03:04:05;;;;;;;6.47;2.38;;;;;;;13.94;79.19;98440.72;2618339;54;20026;-65
2022/06/09 03:06:35;;;;;;;4.72;2.58;;;;;;;13.93;79.04;98452.38;2618312;54;20034;-65
2022/06/09 03:09:06;;;;;;;4.50;2.33;;;;;;;13.92;78.92;98450.75;2617475;47;20057;-65
2022/06/09 03:11:37;;;;;;;5.72;2.13;;;;;;;13.88;79.33;98448.56;2618244;54;20042;-65
2022/06/09 03:14:07;;;;;;;5.45;2.40;;;;;;;13.81;78.78;98442.50;2617498;54;20030;-65
2022/06/09 03:16:36;;;;;;;5.88;2.13;;;;;;;13.79;78.65;98446.41;2617698;47;20022;-65
2022/06/09 03:19:09;;;;;;;5.18;2.05;;;;;;;13.78;78.67;98447.44;2618163;54;20046;-65
2022/06/09 03:21:38;;;;;;;7.65;2.22;;;;;;;13.76;78.70;98441.53;2617952;54;20042;-65
2022/06/09 03:24:08;;;;;;;7.65;2.55;;;;;;;13.68;78.80;98445.31;2618368;54;20039;-65
2022/06/09 03:26:38;;;;;;;6.18;2.03;;;;;;;13.65;78.80;98448.41;2618503;54;20031;-65
2022/06/09 03:29:08;;;;;;;4.20;2.75;;;;;;;13.65;79.17;98451.06;2618363;54;20045;-66
2022/06/09 03:31:38;;;;;;;9.32;2.28;;;;;;;13.65;78.85;98447.59;2618061;54;20038;-65
2022/06/09 03:34:10;;;;;;;8.15;2.22;;;;;;;13.66;78.94;98446.56;2618026;54;20026;-65
2022/06/09 03:36:40;;;;;;;9.68;2.50;;;;;;;13.67;78.61;98451.63;2617984;54;20027;-65
2022/06/09 03:39:09;;;;;;;6.22;2.10;;;;;;;13.69;78.52;98462.06;2618274;54;20037;-65
2022/06/09 03:41:39;;;;;;;6.90;2.58;;;;;;;13.65;78.25;98463.53;2619250;39;20434;-65
2022/06/09 03:44:09;;;;;;;4.32;2.03;;;;;;;13.56;78.57;98465.66;2618359;54;20045;-65
2022/06/09 03:46:39;;;;;;;6.03;2.20;;;;;;;13.51;78.13;98468.97;2617800;47;20034;-65
2022/06/09 03:49:12;;;;;;;5.90;2.40;;;;;;;13.50;78.63;98474.50;2618010;54;20034;-65
2022/06/09 03:51:42;;;;;;;8.07;2.40;;;;;;;13.50;78.44;98469.19;2618230;54;20030;-64
2022/06/09 03:54:12;;;;;;;7.70;2.17;;;;;;;13.57;78.45;98481.38;2618169;54;20049;-66
2022/06/09 03:56:42;;;;;;;7.57;2.05;;;;;;;13.56;78.00;98478.94;2617333;47;20023;-65
2022/06/09 03:59:12;;;;;;;9.02;2.53;;;;;;;13.51;77.96;98486.72;2617925;54;20047;-65
2022/06/09 04:01:42;;;;;;;5.38;2.28;;;;;;;13.54;78.41;98489.75;2618041;54;20033;-64
2022/06/09 04:04:14;;;;;;;15.98;2.60;;;;;;;13.58;77.85;98490.94;2618126;54;20030;-65
2022/06/09 04:06:44;;;;;;;7.47;2.00;;;;;;;13.66;77.96;98500.47;2618259;54;20034;-65
2022/06/09 04:09:14;;;;;;;8.75;2.50;;;;;;;13.70;77.83;98501.66;2618423;39;20439;-66
2022/06/09 04:11:43;;;;;;;8.50;3.17;;;;;;;13.73;77.63;98501.22;2617324;47;20062;-66
2022/06/09 04:14:13;;;;;;;5.13;2.40;;;;;;;13.81;77.64;98500.94;2618079;54;20034;-67
2022/06/09 04:16:45;;;;;;;7.47;2.42;;;;;;;13.92;77.29;98503.88;2618164;54;20030;-66
2022/06/09 04:19:19;;;;;;;10.40;2.80;;;;;;;13.97;76.91;98502.22;2617944;54;20027;-64
2022/06/09 04:21:49;;;;;;;8.88;2.45;;;;;;;14.01;76.47;98505.25;2617942;54;20050;-65
2022/06/09 04:24:19;;;;;;;11.27;2.38;;;;;;;13.95;76.00;98512.22;2618174;54;20045;-64
2022/06/09 04:26:51;;;;;;;5.45;2.00;;;;;;;13.96;76.36;98516.53;2618100;54;20037;-65
2022/06/09 04:29:21;;;;;;;5.05;2.20;;;;;;;14.03;76.26;98513.78;2619056;54;20026;-65
2022/06/09 04:31:50;;;;;;;8.65;2.50;;;;;;;14.10;76.09;98525.16;2620105;54;20064;-65
2022/06/09 04:34:23;;;;;;;5.72;2.17;;;;;;;14.07;75.92;98534.38;2621171;54;20038;-65
2022/06/09 04:36:52;;;;;;;12.57;3.30;;;;;;;14.12;75.89;98539.03;2621330;54;20038;-64
2022/06/09 04:39:22;;;;;;;11.93;2.60;;;;;;;14.13;75.36;98540.69;2620881;54;20038;-65
2022/06/09 04:41:51;;;;;;;9.82;2.60;;;;;;;14.15;75.14;98535.94;2621155;54;20038;-65
2022/06/09 04:44:21;;;;;;;7.70;2.40;;;;;;;14.29;75.44;98540.09;2620395;54;20031;-66
2022/06/09 04:46:51;;;;;;;6.75;2.90;;;;;;;14.42;75.25;98540.97;2619365;54;20097;-66
2022/06/09 04:49:23;;;;;;;10.10;2.35;;;;;;;14.35;74.79;98541.03;2619491;54;20038;-66
2022/06/09 04:51:52;;;;;;;7.55;2.38;;;;;;;14.30;74.28;98547.00;2619656;54;20041;-64
2022/06/09 04:54:22;;;;;;;9.20;2.40;;;;;;;14.34;73.96;98552.69;2619245;54;20030;-66
2022/06/09 04:56:51;;;;;;;9.70;2.33;;;;;;;14.36;74.12;98555.94;2619009;54;20037;-66
2022/06/09 04:59:21;;;;;;;10.32;3.10;;;;;;;14.51;74.20;98552.94;2618674;54;20035;-66
2022/06/09 05:01:51;;;;;;;8.43;2.65;;;;;;;14.60;74.16;98564.88;2618902;54;20045;-66
2022/06/09 05:04:23;;;;;;;8.60;2.08;;;;;;;14.65;72.91;98559.69;2619003;54;20041;-67
2022/06/09 05:06:53;;;;;;;8.88;3.53;;;;;;;14.75;73.22;98561.84;2618373;54;20125;-65
2022/06/09 05:09:23;;;;;;;10.90;2.65;;;;;;;14.80;73.62;98561.97;2618845;54;20043;-64
2022/06/09 05:11:53;;;;;;;6.50;2.70;;;;;;;14.83;73.33;98575.63;2618871;54;20102;-65
2022/06/09 05:14:22;;;;;;;9.20;3.05;;;;;;;14.78;73.09;98577.34;2619166;54;20033;-65
2022/06/09 05:16:52;;;;;;;7.93;2.80;;;;;;;14.74;73.23;98582.31;2618926;54;20039;-64
2022/06/09 05:19:25;;;;;;;9.70;3.30;;;;;;;14.66;73.07;98587.94;2618976;54;20041;-65
2022/06/09 05:21:55;;;;;;;14.20;3.05;;;;;;;14.59;72.79;98597.84;2618455;47;20027;-65
2022/06/09 05:24:24;;;;;;;12.77;3.35;;;;;;;14.52;72.74;98592.59;2618844;54;20035;-65
2022/06/09 05:26:54;;;;;;;12.07;2.90;;;;;;;14.50;72.82;98601.84;2618759;54;20046;-66
2022/06/09 05:29:23;;;;;;;14.00;4.97;;;;;;;14.38;72.73;98607.06;2618531;54;20039;-66
2022/06/09 05:31:54;;;;;;;14.93;3.13;;;;;;;14.38;72.71;98607.06;2618792;54;20038;-65
2022/06/09 05:34:26;;;;;;;11.25;3.10;;;;;;;14.25;72.35;98610.69;2618712;54;20042;-66
2022/06/09 05:36:56;;;;;;;12.20;3.00;;;;;;;14.15;72.53;98618.34;2618745;54;20034;-66
2022/06/09 05:44:56;;;;;;;7.22;2.63;;;;;;;13.94;72.99;98632.03;2618881;54;20118;-65
2022/06/09 05:47:27;;;;;;;9.60;3.30;;;;;;;13.95;73.08;98634.47;2619120;54;20042;-65
2022/06/09 05:49:59;;;;;;;10.02;2.55;;;;;;;13.90;73.04;98633.50;2618933;54;20557;-65
2022/06/09 05:52:31;;;;;;;8.38;3.28;;;;;;;13.92;73.15;98640.25;2619046;54;20069;-65
2022/06/09 05:55:00;;;;;;;8.55;2.95;;;;;;;13.88;72.65;98636.41;2618095;47;20561;-65
2022/06/09 05:57:31;;;;;;;9.38;2.60;;;;;;;13.93;73.09;98631.22;2618333;54;20567;-66
2022/06/09 06:00:00;;;;;;;12.35;4.57;;;;;;;13.98;73.33;98638.56;2618587;54;20038;-65
2022/06/09 06:02:30;;;;;;;7.50;2.88;;;;;;;13.97;72.93;98643.06;2618682;54;20027;-65
2022/06/09 06:05:02;;;;;;;15.70;3.13;;;;;;;13.91;72.67;98649.22;2618162;54;20030;-66
2022/06/09 06:07:32;;;;;;;9.02;2.90;;;;;;;13.85;73.28;98658.88;2618590;54;20061;-66
2022/06/09 06:10:01;;;;;;;10.85;3.80;;;;;;;13.85;73.26;98666.06;2618787;54;20093;-64
2022/06/09 06:12:32;;;;;;;7.18;2.42;;;;;;;13.88;73.17;98671.75;2618564;54;20109;-65
2022/06/09 06:15:02;;;;;;;7.35;2.45;;;;;;;13.85;72.92;98674.84;2618462;54;20035;-65
2022/06/09 06:17:31;;;;;;;11.40;2.38;;;;;;;13.82;72.65;98677.09;2618395;54;20553;-66
2022/06/09 06:20:04;;;;;;;13.80;2.80;;;;;;;13.81;73.15;98686.94;2618604;54;20038;-65
2022/06/09 06:22:33;;;;;;;8.77;2.72;;;;;;;13.84;72.95;98683.03;2618512;54;20581;-64
2022/06/09 06:25:06;;;;;;;11.52;2.70;;;;;;;13.87;72.50;98691.34;2618836;54;20511;-66
2022/06/09 06:27:35;;;;;;;11.15;2.97;;;;;;;13.92;72.86;98689.91;2618399;54;20050;-65
2022/06/09 06:30:14;;;;;;;9.65;2.08;;;;;;;13.97;72.55;98701.53;2618673;54;20042;-65
2022/06/09 06:32:45;;;;;;;9.70;3.10;;;;;;;13.98;72.16;98697.81;2618111;47;20030;-65
2022/06/09 06:35:17;;;;;;;12.77;3.60;;;;;;;14.08;71.92;98700.81;2618606;54;20026;-65
2022/06/09 06:37:47;;;;;;;10.98;2.58;;;;;;;14.16;71.40;98713.00;2618370;54;20045;-65
2022/06/09 06:40:18;;;;;;;13.18;2.60;;;;;;;14.19;71.10;98711.75;2618315;54;20038;-65
2022/06/09 06:42:47;;;;;;;9.45;2.65;;;;;;;14.22;70.98;98711.34;2618432;54;20555;-66
2022/06/09 06:45:18;;;;;;;8.70;2.90;;;;;;;14.43;70.73;98713.59;2617861;54;20535;-65
2022/06/09 06:47:48;;;;;;;5.05;2.60;;;;;;;14.58;69.91;98718.59;2618363;54;20027;-65
2022/06/09 06:50:20;;;;;;;6.43;2.30;;;;;;;14.63;69.75;98716.09;2618203;54;20558;-66
2022/06/09 20:18:25;;;;;;;4.40;2.35;;;;;;;17.31;54.80;99277.09;2580675;54;20037;-68
2022/06/09 20:20:57;;;;;;;6.88;2.85;;;;;;;17.32;55.69;99279.53;2618587;54;20023;-68
2022/06/09 20:23:34;;;;;;;6.63;2.75;;;;;;;17.12;56.29;99286.16;2617848;54;20034;-68
2022/06/09 20:26:07;;;;;;;11.95;4.57;;;;;;;17.11;57.08;99289.88;2618536;54;20066;-66
2022/06/09 20:28:40;;;;;;;7.70;3.13;;;;;;;17.11;57.39;99301.38;2617694;54;20881;-68
2022/06/09 20:31:14;;;;;;;9.27;4.70;;;;;;;17.01;57.66;99298.41;2617973;47;20062;-68
2022/06/09 20:33:47;;;;;;;16.90;8.82;;;;;;;16.87;58.62;99311.09;2617993;54;20069;-68
2022/06/09 20:36:19;;;;;;;7.50;4.53;;;;;;;16.81;58.72;99307.44;2618383;54;20065;-67
2022/06/09 20:38:50;;;;;;;7.63;4.22;;;;;;;16.75;59.07;99315.50;2618290;54;20030;-66
2022/06/09 20:41:23;;;;;;;11.45;4.40;;;;;;;16.68;59.32;99320.06;2618410;54;20042;-67
2022/06/09 20:43:56;;;;;;;;;;;;;;;16.52;60.31;99319.56;2618745;54;20061;-67
2022/06/09 20:46:31;;;;;;;11.05;4.60;;;;;;;16.57;60.30;99329.59;2618487;54;19938;-69
2022/06/09 20:49:06;;;;;;;9.98;4.65;;;;;;;16.48;60.49;99331.72;2618152;54;20546;-67
2022/06/09 20:51:37;;;;;;;15.45;6.65;;;;;;;16.46;60.86;99331.13;2618483;54;20030;-67
2022/06/09 20:54:10;;;;;;;11.52;6.78;;;;;;;16.44;60.88;99340.38;2618418;54;20582;-68
2022/06/09 20:56:40;;;;;;;7.78;4.80;;;;;;;16.43;60.91;99338.75;2618424;54;20027;-67
2022/06/09 20:59:10;;;;;;;10.50;5.70;;;;;;;16.40;61.61;99340.00;2617807;54;20034;-67
2022/06/09 21:01:39;;;;;;;15.55;7.15;;;;;;;16.37;61.57;99343.13;2617843;54;20034;-68
2022/06/09 21:04:12;;;;;;;7.32;4.60;;;;;;;16.40;61.30;99350.66;2617426;54;20034;-68
2022/06/09 21:06:42;;;;;;;5.43;3.20;;;;;;;16.39;61.39;99357.03;2618244;54;20562;-67
2022/06/09 21:09:12;;;;;;;9.05;4.30;;;;;;;16.41;61.49;99352.31;2618874;39;20446;-67
2022/06/09 21:19:52;;;;;;;6.95;3.25;;;;;;;16.31;62.50;99362.66;2618777;54;20037;-67
2022/06/09 21:22:21;;;;;;;4.60;3.13;;;;;;;16.27;62.50;99364.91;2618507;54;20058;-68
2022/06/09 21:24:51;;;;;;;5.95;3.10;;;;;;;16.24;62.71;99361.88;2618648;54;20053;-66
2022/06/09 21:27:21;;;;;;;9.60;3.30;;;;;;;16.05;63.48;99372.47;2619357;54;20027;-66
2022/06/09 21:29:50;;;;;;;8.82;4.60;;;;;;;15.85;64.30;99371.75;2619514;54;20601;-68
2022/06/09 21:32:20;;;;;;;7.85;3.28;;;;;;;15.78;64.76;99373.63;2619063;54;20038;-68
2022/06/09 21:34:52;;;;;;;14.32;3.80;;;;;;;15.74;64.96;99375.88;2619130;54;20035;-68
2022/06/09 21:37:23;;;;;;;11.75;5.93;;;;;;;15.73;65.17;99379.59;2619117;54;20039;-66
2022/06/09 21:39:52;;;;;;;5.60;3.70;;;;;;;15.76;64.68;99381.84;2619170;54;20042;-67
2022/06/09 21:42:26;;;;;;;12.63;5.22;;;;;;;15.76;65.23;99375.69;2619587;54;20065;-67
2022/06/09 21:44:55;;;;;;;7.20;4.18;;;;;;;15.77;65.21;99378.13;2619076;54;20031;-67
2022/06/09 21:47:25;;;;;;;6.45;3.97;;;;;;;15.77;65.07;99380.00;2618688;54;20114;-68
2022/06/09 21:49:57;;;;;;;12.88;6.28;;;;;;;15.72;65.06;99377.97;2618298;47;20030;-67
2022/06/09 21:52:27;;;;;;;6.97;3.80;;;;;;;15.70;65.49;99387.19;2619113;54;20039;-67
2022/06/09 21:54:56;;;;;;;6.68;3.22;;;;;;;15.66;65.07;99393.97;2619160;54;20038;-68
2022/06/09 21:57:26;;;;;;;10.10;3.53;;;;;;;15.58;65.25;99397.66;2618902;54;20039;-69
2022/06/09 21:59:56;;;;;;;6.57;3.42;;;;;;;15.46;66.00;99394.00;2618908;54;20057;-67
2022/06/09 22:02:25;;;;;;;6.35;3.40;;;;;;;15.35;65.92;99398.97;2588914;54;20030;-67
2022/06/09 22:04:58;;;;;;;8.10;3.40;;;;;;;15.18;66.70;99397.75;2623941;47;20073;-67
2022/06/09 22:07:27;;;;;;;6.13;3.00;;;;;;;15.07;67.05;99401.06;2624126;54;20035;-67
2022/06/09 22:09:57;;;;;;;7.95;3.72;;;;;;;15.08;67.19;99402.69;2624196;47;20034;-67
2022/06/09 22:12:26;;;;;;;7.78;3.47;;;;;;;15.12;67.39;99409.25;2623324;54;20146;-68
2022/06/09 22:14:56;;;;;;;7.07;3.00;;;;;;;14.91;67.30;99409.47;2624453;54;20030;-67
2022/06/09 22:17:26;;;;;;;6.18;3.78;;;;;;;14.74;68.11;99403.75;2622459;54;20038;-67
2022/06/09 22:19:58;;;;;;;9.02;3.35;;;;;;;14.60;68.64;99410.91;2624818;54;20034;-66
2022/06/09 22:22:28;;;;;;;7.90;3.20;;;;;;;14.50;69.44;99407.84;2625403;54;20038;-65
2022/06/09 22:24:58;;;;;;;8.07;3.20;;;;;;;14.38;69.41;99410.25;2624748;46;20049;-66
2022/06/09 22:27:27;;;;;;;4.63;3.17;;;;;;;14.32;69.92;99406.53;2624225;54;20038;-66
2022/06/09 22:29:57;;;;;;;6.40;3.13;;;;;;;14.29;69.96;99416.78;2623316;54;20034;-67
2022/06/09 22:32:27;;;;;;;8.40;3.50;;;;;;;14.27;70.31;99416.94;2623730;39;20401;-66
2022/06/09 22:34:59;;;;;;;4.72;2.90;;;;;;;14.24;70.59;99413.88;2625880;54;20022;-67
2022/06/09 22:37:29;;;;;;;4.43;3.15;;;;;;;14.18;70.81;99414.69;2629135;54;20035;-66
2022/06/09 22:40:00;;;;;;;6.18;3.47;;;;;;;14.12;70.89;99422.47;2628185;54;20030;-66
2022/06/09 22:42:30;;;;;;;11.35;3.45;;;;;;;14.08;70.88;99425.69;2627047;39;20474;-66
2022/06/09 22:44:59;;;;;;;3.47;3.15;;;;;;;14.09;70.96;99427.34;2627594;54;20042;-67
2022/06/09 22:47:29;;;;;;;4.88;3.30;;;;;;;14.00;71.15;99429.38;2626448;47;20032;-67
2022/06/09 22:50:01;;;;;;;4.68;3.25;;;;;;;13.89;71.83;99424.63;2625730;54;20026;-66
2022/06/09 22:52:32;;;;;;;5.90;3.67;;;;;;;13.84;72.23;99419.09;2624748;54;20056;-66
2022/06/09 22:57:47;;;;;;;7.10;3.90;;;;;;;13.79;71.89;99432.13;2623967;54;19939;-67
2022/06/09 23:00:21;;;;;;;8.93;3.15;;;;;;;13.93;72.10;99427.72;2621090;54;20039;-67
2022/06/09 23:02:51;;;;;;;8.50;2.90;;;;;;;13.99;72.04;99435.69;2619525;46;20053;-67
2022/06/09 23:05:24;;;;;;;9.88;3.50;;;;;;;14.06;71.99;99438.38;2620195;54;20026;-67
2022/06/09 23:07:54;;;;;;;5.57;2.97;;;;;;;14.19;71.50;99438.41;2619792;54;20034;-68
2022/06/09 23:10:25;;;;;;;6.22;3.97;;;;;;;14.15;71.35;99436.34;2622817;54;20030;-68
2022/06/09 23:12:57;;;;;;;4.35;2.80;;;;;;;13.91;71.63;99435.88;2624677;47;20022;-66
2022/06/09 23:15:28;;;;;;;5.35;3.22;;;;;;;13.83;71.44;99439.50;2625603;54;20611;-67
2022/06/09 23:17:58;;;;;;;8.23;3.67;;;;;;;13.78;71.91;99447.25;2625502;54;20026;-67
2022/06/09 23:20:34;;;;;;;6.82;3.28;;;;;;;13.70;71.58;99446.59;2624661;54;20031;-68
2022/06/09 23:23:04;;;;;;;5.45;3.45;;;;;;;13.56;72.47;99440.41;2622098;54;20041;-68
2022/06/09 23:25:34;;;;;;;6.40;3.10;;;;;;;13.55;72.96;99446.72;2621310;54;20027;-68
2022/06/09 23:28:04;;;;;;;7.47;3.75;;;;;;;13.56;72.85;99449.19;2618992;54;20037;-69
2022/06/09 23:30:34;;;;;;;8.60;3.50;;;;;;;13.54;72.64;99456.53;2619130;54;20077;-68
2022/06/09 23:33:04;;;;;;;6.90;3.60;;;;;;;13.51;72.74;99453.44;2618739;54;20041;-66
2022/06/09 23:35:36;;;;;;;7.10;3.45;;;;;;;13.42;72.75;99463.41;2618983;54;20039;-66
2022/06/09 23:38:06;;;;;;;8.20;3.58;;;;;;;13.34;73.10;99467.03;2619177;54;20543;-67
2022/06/09 23:40:40;;;;;;;6.95;3.40;;;;;;;13.31;73.22;99463.97;2618884;54;20030;-67
2022/06/09 23:43:12;;;;;;;6.30;3.35;;;;;;;13.31;73.46;99466.63;2619032;54;20038;-68
2022/06/09 23:45:45;;;;;;;9.80;2.97;;;;;;;13.28;73.25;99467.81;2619982;54;20042;-68
2022/06/09 23:48:21;;;;;;;6.82;3.13;;;;;;;13.16;73.55;99468.53;2623985;54;20031;-67
2022/06/09 23:50:56;;;;;;;5.95;3.30;;;;;;;13.15;73.47;99462.38;2623035;54;20033;-67
2022/06/09 23:53:27;;;;;;;6.75;3.35;;;;;;;13.06;73.64;99467.03;2621852;54;20034;-67
2022/06/09 23:56:02;;;;;;;7.40;3.45;;;;;;;12.98;74.41;99466.31;2619758;54;20057;-67
2022/06/09 23:58:32;;;;;;;9.23;3.88;;;;;;;12.86;74.35;99464.19;2618418;54;20034;-66
